sensor_id;sensor_type;location;lat;lon;timestamp;temperature;humidity
19340;HTU21D;9804;52.350;6.684;2023-09-08T00:02:06;21.05;-6.00
19340;HTU21D;9804;52.350;6.684;2023-09-08T00:04:32;20.96;-6.00
19340;HTU21D;9804;52.350;6.684;2023-09-08T00:07:00;20.95;-6.00
19340;HTU21D;9804;52.350;6.684;2023-09-08T00:09:26;20.90;-6.00
19340;HTU21D;9804;52.350;6.684;2023-09-08T00:11:51;20.81;-6.00
19340;HTU21D;9804;52.350;6.684;2023-09-08T00:14:17;20.80;-6.00
19340;HTU21D;9804;52.350;6.684;2023-09-08T00:16:43;20.84;-6.00
19340;HTU21D;9804;52.350;6.684;2023-09-08T00:19:09;20.75;-6.00
19340;HTU21D;9804;52.350;6.684;2023-09-08T00:21:36;20.72;-6.00
19340;HTU21D;9804;52.350;6.684;2023-09-08T00:24:01;20.79;-6.00
19340;HTU21D;9804;52.350;6.684;2023-09-08T00:26:27;20.86;-6.00
19340;HTU21D;9804;52.350;6.684;2023-09-08T00:28:52;20.95;-6.00
19340;HTU21D;9804;52.350;6.684;2023-09-08T00:31:17;20.90;-6.00
19340;HTU21D;9804;52.350;6.684;2023-09-08T00:33:43;20.84;-6.00
19340;HTU21D;9804;52.350;6.684;2023-09-08T00:36:09;20.73;-6.00
19340;HTU21D;9804;52.350;6.684;2023-09-08T00:38:35;20.60;-6.00
19340;HTU21D;9804;52.350;6.684;2023-09-08T00:41:00;20.56;-6.00
19340;HTU21D;9804;52.350;6.684;2023-09-08T00:43:26;20.53;-6.00
19340;HTU21D;9804;52.350;6.684;2023-09-08T00:45:52;20.48;-6.00
19340;HTU21D;9804;52.350;6.684;2023-09-08T00:48:18;20.47;-6.00
19340;HTU21D;9804;52.350;6.684;2023-09-08T00:50:43;20.48;-6.00
19340;HTU21D;9804;52.350;6.684;2023-09-08T00:53:10;20.48;-6.00
19340;HTU21D;9804;52.350;6.684;2023-09-08T00:55:35;20.50;-6.00
19340;HTU21D;9804;52.350;6.684;2023-09-08T00:58:01;20.44;-6.00
19340;HTU21D;9804;52.350;6.684;2023-09-08T01:00:27;20.40;-6.00
19340;HTU21D;9804;52.350;6.684;2023-09-08T01:02:53;20.41;-6.00
19340;HTU21D;9804;52.350;6.684;2023-09-08T01:05:19;20.40;-6.00
19340;HTU21D;9804;52.350;6.684;2023-09-08T01:07:46;20.40;-6.00
19340;HTU21D;9804;52.350;6.684;2023-09-08T01:10:13;20.37;-6.00
19340;HTU21D;9804;52.350;6.684;2023-09-08T01:12:39;20.34;-6.00
19340;HTU21D;9804;52.350;6.684;2023-09-08T01:15:06;20.21;-6.00
19340;HTU21D;9804;52.350;6.684;2023-09-08T01:17:32;20.15;-6.00
19340;HTU21D;9804;52.350;6.684;2023-09-08T01:22:55;20.01;-6.00
19340;HTU21D;9804;52.350;6.684;2023-09-08T01:25:24;20.01;-6.00
19340;HTU21D;9804;52.350;6.684;2023-09-08T01:27:52;20.03;-6.00
19340;HTU21D;9804;52.350;6.684;2023-09-08T01:30:18;20.01;-6.00
19340;HTU21D;9804;52.350;6.684;2023-09-08T01:32:45;19.94;-6.00
19340;HTU21D;9804;52.350;6.684;2023-09-08T01:35:11;19.84;-6.00
19340;HTU21D;9804;52.350;6.684;2023-09-08T01:37:40;19.77;-6.00
19340;HTU21D;9804;52.350;6.684;2023-09-08T01:40:06;19.69;-6.00
19340;HTU21D;9804;52.350;6.684;2023-09-08T01:42:32;19.68;-6.00
19340;HTU21D;9804;52.350;6.684;2023-09-08T01:44:57;19.67;-6.00
19340;HTU21D;9804;52.350;6.684;2023-09-08T01:47:22;19.77;-6.00
19340;HTU21D;9804;52.350;6.684;2023-09-08T01:49:48;19.83;-6.00
19340;HTU21D;9804;52.350;6.684;2023-09-08T01:52:13;19.80;-6.00
19340;HTU21D;9804;52.350;6.684;2023-09-08T01:54:38;19.83;-6.00
19340;HTU21D;9804;52.350;6.684;2023-09-08T01:57:04;19.81;-6.00
19340;HTU21D;9804;52.350;6.684;2023-09-08T01:59:29;19.81;-6.00
19340;HTU21D;9804;52.350;6.684;2023-09-08T02:01:54;19.72;-6.00
19340;HTU21D;9804;52.350;6.684;2023-09-08T02:04:20;19.67;-6.00
19340;HTU21D;9804;52.350;6.684;2023-09-08T02:06:45;19.67;-6.00
19340;HTU21D;9804;52.350;6.684;2023-09-08T02:09:14;19.59;-6.00
19340;HTU21D;9804;52.350;6.684;2023-09-08T02:11:39;19.54;-6.00
19340;HTU21D;9804;52.350;6.684;2023-09-08T02:14:05;19.46;-6.00
19340;HTU21D;9804;52.350;6.684;2023-09-08T02:16:30;19.52;-6.00
19340;HTU21D;9804;52.350;6.684;2023-09-08T02:18:55;19.57;-6.00
19340;HTU21D;9804;52.350;6.684;2023-09-08T02:21:21;19.57;-6.00
19340;HTU21D;9804;52.350;6.684;2023-09-08T02:23:46;19.68;-6.00
19340;HTU21D;9804;52.350;6.684;2023-09-08T02:26:12;19.71;-6.00
19340;HTU21D;9804;52.350;6.684;2023-09-08T02:28:37;19.73;-6.00
19340;HTU21D;9804;52.350;6.684;2023-09-08T02:31:03;19.70;-6.00
19340;HTU21D;9804;52.350;6.684;2023-09-08T02:33:28;19.76;-6.00
19340;HTU21D;9804;52.350;6.684;2023-09-08T02:35:53;19.74;-6.00
19340;HTU21D;9804;52.350;6.684;2023-09-08T02:38:19;19.85;-6.00
19340;HTU21D;9804;52.350;6.684;2023-09-08T02:40:44;19.80;-6.00
19340;HTU21D;9804;52.350;6.684;2023-09-08T02:43:10;19.75;-6.00
19340;HTU21D;9804;52.350;6.684;2023-09-08T02:45:35;19.73;-6.00
19340;HTU21D;9804;52.350;6.684;2023-09-08T02:48:01;19.69;-6.00
19340;HTU21D;9804;52.350;6.684;2023-09-08T02:50:26;19.72;-6.00
19340;HTU21D;9804;52.350;6.684;2023-09-08T02:52:52;19.66;-6.00
19340;HTU21D;9804;52.350;6.684;2023-09-08T02:55:17;19.73;-6.00
19340;HTU21D;9804;52.350;6.684;2023-09-08T02:57:42;19.68;-6.00
19340;HTU21D;9804;52.350;6.684;2023-09-08T03:00:08;19.69;-6.00
19340;HTU21D;9804;52.350;6.684;2023-09-08T03:02:34;19.60;-6.00
19340;HTU21D;9804;52.350;6.684;2023-09-08T03:05:00;19.54;-6.00
19340;HTU21D;9804;52.350;6.684;2023-09-08T03:07:26;19.47;-6.00
19340;HTU21D;9804;52.350;6.684;2023-09-08T03:09:51;19.39;-6.00
19340;HTU21D;9804;52.350;6.684;2023-09-08T03:12:17;19.32;-6.00
19340;HTU21D;9804;52.350;6.684;2023-09-08T03:14:42;19.29;-6.00
19340;HTU21D;9804;52.350;6.684;2023-09-08T03:17:07;19.24;-6.00
19340;HTU21D;9804;52.350;6.684;2023-09-08T03:19:33;19.23;-6.00
19340;HTU21D;9804;52.350;6.684;2023-09-08T03:21:58;19.13;-6.00
19340;HTU21D;9804;52.350;6.684;2023-09-08T03:24:24;19.07;-6.00
19340;HTU21D;9804;52.350;6.684;2023-09-08T03:26:49;19.00;-6.00
19340;HTU21D;9804;52.350;6.684;2023-09-08T03:29:14;18.95;-6.00
19340;HTU21D;9804;52.350;6.684;2023-09-08T03:31:40;18.95;-6.00
19340;HTU21D;9804;52.350;6.684;2023-09-08T03:34:05;19.05;-6.00
19340;HTU21D;9804;52.350;6.684;2023-09-08T03:36:31;19.11;-6.00
19340;HTU21D;9804;52.350;6.684;2023-09-08T03:38:56;19.16;-6.00
19340;HTU21D;9804;52.350;6.684;2023-09-08T03:41:23;19.10;-6.00
19340;HTU21D;9804;52.350;6.684;2023-09-08T03:43:48;19.11;-6.00
19340;HTU21D;9804;52.350;6.684;2023-09-08T03:46:14;19.06;-6.00
19340;HTU21D;9804;52.350;6.684;2023-09-08T03:48:39;19.02;-6.00
19340;HTU21D;9804;52.350;6.684;2023-09-08T03:51:05;19.07;-6.00
19340;HTU21D;9804;52.350;6.684;2023-09-08T03:53:31;19.08;-6.00
19340;HTU21D;9804;52.350;6.684;2023-09-08T03:55:56;19.16;-6.00
19340;HTU21D;9804;52.350;6.684;2023-09-08T03:58:21;19.16;-6.00
19340;HTU21D;9804;52.350;6.684;2023-09-08T04:00:47;19.15;-6.00
19340;HTU21D;9804;52.350;6.684;2023-09-08T04:03:12;19.20;-6.00
19340;HTU21D;9804;52.350;6.684;2023-09-08T04:05:38;19.24;-6.00
19340;HTU21D;9804;52.350;6.684;2023-09-08T04:08:03;19.18;-6.00
19340;HTU21D;9804;52.350;6.684;2023-09-08T04:10:29;19.16;-6.00
19340;HTU21D;9804;52.350;6.684;2023-09-08T04:12:54;19.11;-6.00
19340;HTU21D;9804;52.350;6.684;2023-09-08T04:15:19;19.15;-6.00
19340;HTU21D;9804;52.350;6.684;2023-09-08T04:17:45;19.17;-6.00
19340;HTU21D;9804;52.350;6.684;2023-09-08T04:20:11;19.15;-6.00
19340;HTU21D;9804;52.350;6.684;2023-09-08T04:22:36;19.13;-6.00
19340;HTU21D;9804;52.350;6.684;2023-09-08T04:25:02;19.21;-6.00
19340;HTU21D;9804;52.350;6.684;2023-09-08T04:27:27;19.24;-6.00
19340;HTU21D;9804;52.350;6.684;2023-09-08T04:29:53;19.18;-6.00
19340;HTU21D;9804;52.350;6.684;2023-09-08T04:32:18;19.13;-6.00
19340;HTU21D;9804;52.350;6.684;2023-09-08T04:34:43;19.09;-6.00
19340;HTU21D;9804;52.350;6.684;2023-09-08T04:37:09;19.08;-6.00
19340;HTU21D;9804;52.350;6.684;2023-09-08T04:39:35;19.01;-6.00
19340;HTU21D;9804;52.350;6.684;2023-09-08T04:42:02;19.05;-6.00
19340;HTU21D;9804;52.350;6.684;2023-09-08T04:44:28;19.06;-6.00
19340;HTU21D;9804;52.350;6.684;2023-09-08T04:46:54;19.09;-6.00
19340;HTU21D;9804;52.350;6.684;2023-09-08T04:49:20;19.11;-6.00
19340;HTU21D;9804;52.350;6.684;2023-09-08T04:51:45;19.14;-6.00
19340;HTU21D;9804;52.350;6.684;2023-09-08T04:54:10;19.09;-6.00
19340;HTU21D;9804;52.350;6.684;2023-09-08T04:56:36;19.02;-6.00
19340;HTU21D;9804;52.350;6.684;2023-09-08T04:59:01;18.94;-6.00
19340;HTU21D;9804;52.350;6.684;2023-09-08T05:01:27;18.89;-6.00
19340;HTU21D;9804;52.350;6.684;2023-09-08T05:03:54;18.86;-6.00
19340;HTU21D;9804;52.350;6.684;2023-09-08T05:06:20;18.84;-6.00
19340;HTU21D;9804;52.350;6.684;2023-09-08T05:08:45;18.88;-6.00
19340;HTU21D;9804;52.350;6.684;2023-09-08T05:11:11;18.88;-6.00
19340;HTU21D;9804;52.350;6.684;2023-09-08T05:13:36;18.87;-6.00
19340;HTU21D;9804;52.350;6.684;2023-09-08T05:16:01;18.92;-6.00
19340;HTU21D;9804;52.350;6.684;2023-09-08T05:18:38;18.93;-6.00
19340;HTU21D;9804;52.350;6.684;2023-09-08T05:21:03;18.94;-6.00
19340;HTU21D;9804;52.350;6.684;2023-09-08T05:23:29;18.98;-6.00
19340;HTU21D;9804;52.350;6.684;2023-09-08T05:25:54;18.98;-6.00
19340;HTU21D;9804;52.350;6.684;2023-09-08T05:28:20;19.02;-6.00
19340;HTU21D;9804;52.350;6.684;2023-09-08T05:30:45;19.01;-6.00
19340;HTU21D;9804;52.350;6.684;2023-09-08T05:33:11;19.03;-6.00
19340;HTU21D;9804;52.350;6.684;2023-09-08T05:35:36;19.08;-6.00
19340;HTU21D;9804;52.350;6.684;2023-09-08T05:38:01;19.05;-6.00
19340;HTU21D;9804;52.350;6.684;2023-09-08T05:40:27;19.08;-6.00
19340;HTU21D;9804;52.350;6.684;2023-09-08T05:42:53;19.14;-6.00
19340;HTU21D;9804;52.350;6.684;2023-09-08T05:45:18;19.16;-6.00
19340;HTU21D;9804;52.350;6.684;2023-09-08T05:47:44;19.25;-6.00
19340;HTU21D;9804;52.350;6.684;2023-09-08T05:50:10;19.20;-6.00
19340;HTU21D;9804;52.350;6.684;2023-09-08T05:52:36;19.30;-6.00
19340;HTU21D;9804;52.350;6.684;2023-09-08T05:55:01;19.36;-6.00
19340;HTU21D;9804;52.350;6.684;2023-09-08T05:57:26;19.42;-6.00
19340;HTU21D;9804;52.350;6.684;2023-09-08T05:59:52;19.45;-6.00
19340;HTU21D;9804;52.350;6.684;2023-09-08T06:02:17;19.53;-6.00
19340;HTU21D;9804;52.350;6.684;2023-09-08T06:04:42;19.58;-6.00
19340;HTU21D;9804;52.350;6.684;2023-09-08T06:07:08;19.65;-6.00
19340;HTU21D;9804;52.350;6.684;2023-09-08T06:09:33;19.75;-6.00
19340;HTU21D;9804;52.350;6.684;2023-09-08T06:11:59;19.81;-6.00
19340;HTU21D;9804;52.350;6.684;2023-09-08T06:14:24;19.90;-6.00
19340;HTU21D;9804;52.350;6.684;2023-09-08T06:16:49;19.97;-6.00
19340;HTU21D;9804;52.350;6.684;2023-09-08T06:19:15;20.06;-6.00
19340;HTU21D;9804;52.350;6.684;2023-09-08T06:21:40;20.12;-6.00
19340;HTU21D;9804;52.350;6.684;2023-09-08T06:24:06;20.24;-6.00
19340;HTU21D;9804;52.350;6.684;2023-09-08T06:26:31;20.33;-6.00
19340;HTU21D;9804;52.350;6.684;2023-09-08T06:28:57;20.49;-6.00
19340;HTU21D;9804;52.350;6.684;2023-09-08T06:31:22;20.53;-6.00
19340;HTU21D;9804;52.350;6.684;2023-09-08T06:33:47;20.62;-6.00
19340;HTU21D;9804;52.350;6.684;2023-09-08T06:36:17;20.69;-6.00
19340;HTU21D;9804;52.350;6.684;2023-09-08T06:38:42;20.73;-6.00
19340;HTU21D;9804;52.350;6.684;2023-09-08T06:41:12;20.84;-6.00
19340;HTU21D;9804;52.350;6.684;2023-09-08T06:43:37;20.99;-6.00
19340;HTU21D;9804;52.350;6.684;2023-09-08T06:46:03;21.11;-6.00
19340;HTU21D;9804;52.350;6.684;2023-09-08T06:48:29;21.16;-6.00
19340;HTU21D;9804;52.350;6.684;2023-09-08T06:50:54;21.24;-6.00
19340;HTU21D;9804;52.350;6.684;2023-09-08T06:53:24;21.32;-6.00
19340;HTU21D;9804;52.350;6.684;2023-09-08T06:55:49;21.47;-6.00
19340;HTU21D;9804;52.350;6.684;2023-09-08T06:58:14;21.55;-6.00
19340;HTU21D;9804;52.350;6.684;2023-09-08T07:00:41;21.68;-6.00
19340;HTU21D;9804;52.350;6.684;2023-09-08T07:03:06;21.87;-6.00
19340;HTU21D;9804;52.350;6.684;2023-09-08T07:05:33;21.98;-6.00
19340;HTU21D;9804;52.350;6.684;2023-09-08T07:07:59;22.08;-6.00
19340;HTU21D;9804;52.350;6.684;2023-09-08T07:10:24;22.21;-6.00
19340;HTU21D;9804;52.350;6.684;2023-09-08T07:12:49;22.35;-6.00
19340;HTU21D;9804;52.350;6.684;2023-09-08T07:15:15;22.48;-6.00
19340;HTU21D;9804;52.350;6.684;2023-09-08T07:17:40;22.60;-6.00
19340;HTU21D;9804;52.350;6.684;2023-09-08T07:20:07;22.70;-6.00
19340;HTU21D;9804;52.350;6.684;2023-09-08T07:22:32;22.76;-6.00
19340;HTU21D;9804;52.350;6.684;2023-09-08T07:24:58;22.85;-6.00
19340;HTU21D;9804;52.350;6.684;2023-09-08T07:27:23;23.00;-6.00
19340;HTU21D;9804;52.350;6.684;2023-09-08T07:29:48;23.07;-6.00
19340;HTU21D;9804;52.350;6.684;2023-09-08T07:32:18;23.21;-6.00
19340;HTU21D;9804;52.350;6.684;2023-09-08T07:34:43;23.29;-6.00
19340;HTU21D;9804;52.350;6.684;2023-09-08T07:37:09;23.41;-6.00
19340;HTU21D;9804;52.350;6.684;2023-09-08T07:39:34;23.47;-6.00
19340;HTU21D;9804;52.350;6.684;2023-09-08T07:42:01;23.59;-6.00
19340;HTU21D;9804;52.350;6.684;2023-09-08T07:44:26;23.76;-6.00
19340;HTU21D;9804;52.350;6.684;2023-09-08T07:46:51;23.99;-6.00
19340;HTU21D;9804;52.350;6.684;2023-09-08T07:49:18;24.12;-6.00
19340;HTU21D;9804;52.350;6.684;2023-09-08T07:51:44;24.21;-6.00
19340;HTU21D;9804;52.350;6.684;2023-09-08T07:54:10;24.38;-6.00
19340;HTU21D;9804;52.350;6.684;2023-09-08T07:56:35;24.63;-6.00
19340;HTU21D;9804;52.350;6.684;2023-09-08T07:59:01;24.65;-6.00
19340;HTU21D;9804;52.350;6.684;2023-09-08T08:01:26;24.76;-6.00
19340;HTU21D;9804;52.350;6.684;2023-09-08T08:03:51;25.06;-6.00
19340;HTU21D;9804;52.350;6.684;2023-09-08T08:06:17;25.19;-6.00
19340;HTU21D;9804;52.350;6.684;2023-09-08T08:08:42;25.22;-6.00
19340;HTU21D;9804;52.350;6.684;2023-09-08T08:11:17;25.33;-6.00
19340;HTU21D;9804;52.350;6.684;2023-09-08T08:13:43;25.39;-6.00
19340;HTU21D;9804;52.350;6.684;2023-09-08T08:16:09;25.54;-6.00
19340;HTU21D;9804;52.350;6.684;2023-09-08T08:18:34;25.58;-6.00
19340;HTU21D;9804;52.350;6.684;2023-09-08T08:21:00;25.47;-6.00
19340;HTU21D;9804;52.350;6.684;2023-09-08T08:23:26;25.53;-6.00
19340;HTU21D;9804;52.350;6.684;2023-09-08T08:25:51;25.52;-6.00
19340;HTU21D;9804;52.350;6.684;2023-09-08T08:28:17;25.66;-6.00
19340;HTU21D;9804;52.350;6.684;2023-09-08T08:30:42;25.93;-6.00
19340;HTU21D;9804;52.350;6.684;2023-09-08T08:33:07;26.08;-6.00
19340;HTU21D;9804;52.350;6.684;2023-09-08T08:35:33;26.19;-6.00
19340;HTU21D;9804;52.350;6.684;2023-09-08T08:37:59;26.22;-6.00
19340;HTU21D;9804;52.350;6.684;2023-09-08T08:40:25;26.39;-6.00
19340;HTU21D;9804;52.350;6.684;2023-09-08T08:42:56;26.53;-6.00
19340;HTU21D;9804;52.350;6.684;2023-09-08T08:45:23;26.73;-6.00
19340;HTU21D;9804;52.350;6.684;2023-09-08T08:47:50;26.63;-6.00
19340;HTU21D;9804;52.350;6.684;2023-09-08T08:50:17;26.78;-6.00
19340;HTU21D;9804;52.350;6.684;2023-09-08T08:52:43;26.96;-6.00
19340;HTU21D;9804;52.350;6.684;2023-09-08T08:55:09;27.24;-6.00
19340;HTU21D;9804;52.350;6.684;2023-09-08T08:57:38;27.24;-6.00
19340;HTU21D;9804;52.350;6.684;2023-09-08T09:00:13;27.31;-6.00
19340;HTU21D;9804;52.350;6.684;2023-09-08T09:02:41;27.49;-6.00
19340;HTU21D;9804;52.350;6.684;2023-09-08T09:05:14;27.58;-6.00
19340;HTU21D;9804;52.350;6.684;2023-09-08T09:07:42;27.61;-6.00
19340;HTU21D;9804;52.350;6.684;2023-09-08T09:10:09;27.71;-6.00
19340;HTU21D;9804;52.350;6.684;2023-09-08T09:12:36;27.69;-6.00
19340;HTU21D;9804;52.350;6.684;2023-09-08T09:15:02;27.78;-6.00
19340;HTU21D;9804;52.350;6.684;2023-09-08T09:17:30;27.85;-6.00
19340;HTU21D;9804;52.350;6.684;2023-09-08T09:20:14;28.03;-6.00
19340;HTU21D;9804;52.350;6.684;2023-09-08T09:22:40;28.04;-6.00
19340;HTU21D;9804;52.350;6.684;2023-09-08T09:25:06;28.09;-6.00
19340;HTU21D;9804;52.350;6.684;2023-09-08T09:27:33;28.27;-6.00
19340;HTU21D;9804;52.350;6.684;2023-09-08T09:29:59;28.35;-6.00
19340;HTU21D;9804;52.350;6.684;2023-09-08T09:32:24;28.57;-6.00
19340;HTU21D;9804;52.350;6.684;2023-09-08T09:34:54;28.61;-6.00
19340;HTU21D;9804;52.350;6.684;2023-09-08T09:37:19;28.59;-6.00
19340;HTU21D;9804;52.350;6.684;2023-09-08T09:39:49;28.56;-6.00
19340;HTU21D;9804;52.350;6.684;2023-09-08T09:42:15;28.55;-6.00
19340;HTU21D;9804;52.350;6.684;2023-09-08T09:44:40;28.68;-6.00
19340;HTU21D;9804;52.350;6.684;2023-09-08T09:47:06;28.79;-6.00
19340;HTU21D;9804;52.350;6.684;2023-09-08T09:49:32;28.72;-6.00
19340;HTU21D;9804;52.350;6.684;2023-09-08T09:51:58;28.86;-6.00
19340;HTU21D;9804;52.350;6.684;2023-09-08T09:54:23;28.97;-6.00
19340;HTU21D;9804;52.350;6.684;2023-09-08T09:56:49;29.17;-6.00
19340;HTU21D;9804;52.350;6.684;2023-09-08T09:59:17;29.15;-6.00
19340;HTU21D;9804;52.350;6.684;2023-09-08T10:01:42;29.33;-6.00
19340;HTU21D;9804;52.350;6.684;2023-09-08T10:04:09;29.48;-6.00
19340;HTU21D;9804;52.350;6.684;2023-09-08T10:06:36;29.62;-6.00
19340;HTU21D;9804;52.350;6.684;2023-09-08T10:09:04;29.66;-6.00
19340;HTU21D;9804;52.350;6.684;2023-09-08T10:11:48;29.77;-6.00
19340;HTU21D;9804;52.350;6.684;2023-09-08T10:14:18;29.77;-6.00
19340;HTU21D;9804;52.350;6.684;2023-09-08T10:16:45;29.85;-6.00
19340;HTU21D;9804;52.350;6.684;2023-09-08T10:19:15;29.95;-6.00
19340;HTU21D;9804;52.350;6.684;2023-09-08T10:21:42;30.04;-6.00
19340;HTU21D;9804;52.350;6.684;2023-09-08T10:24:20;30.11;-6.00
19340;HTU21D;9804;52.350;6.684;2023-09-08T10:27:08;30.26;-6.00
19340;HTU21D;9804;52.350;6.684;2023-09-08T10:29:35;30.20;-6.00
19340;HTU21D;9804;52.350;6.684;2023-09-08T10:32:01;30.16;-6.00
19340;HTU21D;9804;52.350;6.684;2023-09-08T10:34:28;30.45;-6.00
19340;HTU21D;9804;52.350;6.684;2023-09-08T10:36:54;30.46;-6.00
19340;HTU21D;9804;52.350;6.684;2023-09-08T10:39:34;30.65;-6.00
19340;HTU21D;9804;52.350;6.684;2023-09-08T10:47:14;30.77;-6.00
19340;HTU21D;9804;52.350;6.684;2023-09-08T10:49:43;30.76;-6.00
19340;HTU21D;9804;52.350;6.684;2023-09-08T10:52:10;30.79;-6.00
19340;HTU21D;9804;52.350;6.684;2023-09-08T10:54:48;31.05;-6.00
19340;HTU21D;9804;52.350;6.684;2023-09-08T10:57:18;30.96;-6.00
19340;HTU21D;9804;52.350;6.684;2023-09-08T10:59:52;31.06;-6.00
19340;HTU21D;9804;52.350;6.684;2023-09-08T11:02:39;31.22;-6.00
19340;HTU21D;9804;52.350;6.684;2023-09-08T11:05:08;31.31;-6.00
19340;HTU21D;9804;52.350;6.684;2023-09-08T11:07:35;31.44;-6.00
19340;HTU21D;9804;52.350;6.684;2023-09-08T11:10:01;31.52;-6.00
19340;HTU21D;9804;52.350;6.684;2023-09-08T11:12:30;31.68;-6.00
19340;HTU21D;9804;52.350;6.684;2023-09-08T11:14:55;31.76;-6.00
19340;HTU21D;9804;52.350;6.684;2023-09-08T11:17:25;31.63;-6.00
19340;HTU21D;9804;52.350;6.684;2023-09-08T11:19:51;31.82;-6.00
19340;HTU21D;9804;52.350;6.684;2023-09-08T11:22:17;31.76;-6.00
19340;HTU21D;9804;52.350;6.684;2023-09-08T11:24:43;31.66;-6.00
19340;HTU21D;9804;52.350;6.684;2023-09-08T11:27:10;31.72;-6.00
19340;HTU21D;9804;52.350;6.684;2023-09-08T11:29:36;31.92;-6.00
19340;HTU21D;9804;52.350;6.684;2023-09-08T11:32:02;32.10;-6.00
19340;HTU21D;9804;52.350;6.684;2023-09-08T11:34:31;32.23;-6.00
19340;HTU21D;9804;52.350;6.684;2023-09-08T11:36:57;32.16;-6.00
19340;HTU21D;9804;52.350;6.684;2023-09-08T11:39:25;32.19;-6.00
19340;HTU21D;9804;52.350;6.684;2023-09-08T11:41:51;32.27;-6.00
19340;HTU21D;9804;52.350;6.684;2023-09-08T11:44:18;32.32;-6.00
19340;HTU21D;9804;52.350;6.684;2023-09-08T11:46:44;32.40;-6.00
19340;HTU21D;9804;52.350;6.684;2023-09-08T11:49:10;32.42;-6.00
19340;HTU21D;9804;52.350;6.684;2023-09-08T11:51:35;32.39;-6.00
19340;HTU21D;9804;52.350;6.684;2023-09-08T11:54:02;32.27;-6.00
19340;HTU21D;9804;52.350;6.684;2023-09-08T11:56:27;32.43;-6.00
19340;HTU21D;9804;52.350;6.684;2023-09-08T11:58:53;32.55;-6.00
19340;HTU21D;9804;52.350;6.684;2023-09-08T12:01:19;32.50;-6.00
19340;HTU21D;9804;52.350;6.684;2023-09-08T12:03:53;32.60;-6.00
19340;HTU21D;9804;52.350;6.684;2023-09-08T12:06:18;32.55;-6.00
19340;HTU21D;9804;52.350;6.684;2023-09-08T12:08:44;32.55;-6.00
19340;HTU21D;9804;52.350;6.684;2023-09-08T12:11:10;32.77;-6.00
19340;HTU21D;9804;52.350;6.684;2023-09-08T12:13:36;32.57;-6.00
19340;HTU21D;9804;52.350;6.684;2023-09-08T12:16:01;32.84;-6.00
19340;HTU21D;9804;52.350;6.684;2023-09-08T12:18:39;32.99;-6.00
19340;HTU21D;9804;52.350;6.684;2023-09-08T12:21:05;33.11;-6.00
19340;HTU21D;9804;52.350;6.684;2023-09-08T12:23:31;33.11;-6.00
19340;HTU21D;9804;52.350;6.684;2023-09-08T12:25:57;33.13;-6.00
19340;HTU21D;9804;52.350;6.684;2023-09-08T12:28:23;33.14;-6.00
19340;HTU21D;9804;52.350;6.684;2023-09-08T12:30:51;33.02;-6.00
19340;HTU21D;9804;52.350;6.684;2023-09-08T12:33:19;33.25;-6.00
19340;HTU21D;9804;52.350;6.684;2023-09-08T12:35:46;33.26;-6.00
19340;HTU21D;9804;52.350;6.684;2023-09-08T12:38:13;33.32;-6.00
19340;HTU21D;9804;52.350;6.684;2023-09-08T12:40:39;33.41;-6.00
19340;HTU21D;9804;52.350;6.684;2023-09-08T12:43:04;33.44;-6.00
19340;HTU21D;9804;52.350;6.684;2023-09-08T12:45:32;33.32;-6.00
19340;HTU21D;9804;52.350;6.684;2023-09-08T12:47:59;33.43;-6.00
19340;HTU21D;9804;52.350;6.684;2023-09-08T12:50:27;33.55;-6.00
19340;HTU21D;9804;52.350;6.684;2023-09-08T12:52:52;33.57;-6.00
19340;HTU21D;9804;52.350;6.684;2023-09-08T12:55:18;33.45;-6.00
19340;HTU21D;9804;52.350;6.684;2023-09-08T12:57:43;33.46;-6.00
19340;HTU21D;9804;52.350;6.684;2023-09-08T13:00:09;33.68;-6.00
19340;HTU21D;9804;52.350;6.684;2023-09-08T13:02:35;33.72;-6.00
19340;HTU21D;9804;52.350;6.684;2023-09-08T13:05:01;33.48;-6.00
19340;HTU21D;9804;52.350;6.684;2023-09-08T13:07:27;33.94;-6.00
19340;HTU21D;9804;52.350;6.684;2023-09-08T13:09:52;34.01;-6.00
19340;HTU21D;9804;52.350;6.684;2023-09-08T13:12:18;33.97;-6.00
19340;HTU21D;9804;52.350;6.684;2023-09-08T13:14:43;33.90;-6.00
19340;HTU21D;9804;52.350;6.684;2023-09-08T13:17:10;33.76;-6.00
19340;HTU21D;9804;52.350;6.684;2023-09-08T13:19:35;33.95;-6.00
19340;HTU21D;9804;52.350;6.684;2023-09-08T13:22:03;33.97;-6.00
19340;HTU21D;9804;52.350;6.684;2023-09-08T13:24:28;34.05;-6.00
19340;HTU21D;9804;52.350;6.684;2023-09-08T13:26:54;34.07;-6.00
19340;HTU21D;9804;52.350;6.684;2023-09-08T13:29:19;34.06;-6.00
19340;HTU21D;9804;52.350;6.684;2023-09-08T13:31:45;34.30;-6.00
19340;HTU21D;9804;52.350;6.684;2023-09-08T13:34:10;34.36;-6.00
19340;HTU21D;9804;52.350;6.684;2023-09-08T13:36:35;34.31;-6.00
19340;HTU21D;9804;52.350;6.684;2023-09-08T13:39:01;34.11;-6.00
19340;HTU21D;9804;52.350;6.684;2023-09-08T13:44:11;34.07;-6.00
19340;HTU21D;9804;52.350;6.684;2023-09-08T13:46:37;33.91;-6.00
19340;HTU21D;9804;52.350;6.684;2023-09-08T13:49:02;33.66;-6.00
19340;HTU21D;9804;52.350;6.684;2023-09-08T13:51:28;33.94;-6.00
19340;HTU21D;9804;52.350;6.684;2023-09-08T13:53:53;34.07;-6.00
19340;HTU21D;9804;52.350;6.684;2023-09-08T13:56:19;33.89;-6.00
19340;HTU21D;9804;52.350;6.684;2023-09-08T13:58:44;33.83;-6.00
19340;HTU21D;9804;52.350;6.684;2023-09-08T14:01:11;33.83;-6.00
19340;HTU21D;9804;52.350;6.684;2023-09-08T14:03:36;34.03;-6.00
19340;HTU21D;9804;52.350;6.684;2023-09-08T14:06:01;33.89;-6.00
19340;HTU21D;9804;52.350;6.684;2023-09-08T14:08:27;33.40;-6.00
19340;HTU21D;9804;52.350;6.684;2023-09-08T14:10:53;33.57;-6.00
19340;HTU21D;9804;52.350;6.684;2023-09-08T14:13:19;33.63;-6.00
19340;HTU21D;9804;52.350;6.684;2023-09-08T14:15:44;33.72;-6.00
19340;HTU21D;9804;52.350;6.684;2023-09-08T14:18:09;33.60;-6.00
19340;HTU21D;9804;52.350;6.684;2023-09-08T14:20:35;33.38;-6.00
19340;HTU21D;9804;52.350;6.684;2023-09-08T14:23:00;33.44;-6.00
19340;HTU21D;9804;52.350;6.684;2023-09-08T14:25:26;33.61;-6.00
19340;HTU21D;9804;52.350;6.684;2023-09-08T14:27:51;33.58;-6.00
19340;HTU21D;9804;52.350;6.684;2023-09-08T14:30:17;33.60;-6.00
19340;HTU21D;9804;52.350;6.684;2023-09-08T14:32:42;33.61;-6.00
19340;HTU21D;9804;52.350;6.684;2023-09-08T14:35:07;33.64;-6.00
19340;HTU21D;9804;52.350;6.684;2023-09-08T14:37:33;33.49;-6.00
19340;HTU21D;9804;52.350;6.684;2023-09-08T14:39:58;33.51;-6.00
19340;HTU21D;9804;52.350;6.684;2023-09-08T14:42:24;33.53;-6.00
19340;HTU21D;9804;52.350;6.684;2023-09-08T14:44:49;33.65;-6.00
19340;HTU21D;9804;52.350;6.684;2023-09-08T14:47:17;33.48;-6.00
19340;HTU21D;9804;52.350;6.684;2023-09-08T14:49:42;33.55;-6.00
19340;HTU21D;9804;52.350;6.684;2023-09-08T14:52:07;33.62;-6.00
19340;HTU21D;9804;52.350;6.684;2023-09-08T14:54:33;33.48;-6.00
19340;HTU21D;9804;52.350;6.684;2023-09-08T14:56:58;33.58;-6.00
19340;HTU21D;9804;52.350;6.684;2023-09-08T14:59:24;33.61;-6.00
19340;HTU21D;9804;52.350;6.684;2023-09-08T15:01:49;33.64;-6.00
19340;HTU21D;9804;52.350;6.684;2023-09-08T15:04:16;33.58;-6.00
19340;HTU21D;9804;52.350;6.684;2023-09-08T15:06:41;33.58;-6.00
19340;HTU21D;9804;52.350;6.684;2023-09-08T15:09:07;33.50;-6.00
19340;HTU21D;9804;52.350;6.684;2023-09-08T15:11:32;33.48;-6.00
19340;HTU21D;9804;52.350;6.684;2023-09-08T15:13:57;33.63;-6.00
19340;HTU21D;9804;52.350;6.684;2023-09-08T15:16:23;33.73;-6.00
19340;HTU21D;9804;52.350;6.684;2023-09-08T15:18:49;33.73;-6.00
19340;HTU21D;9804;52.350;6.684;2023-09-08T15:21:15;33.74;-6.00
19340;HTU21D;9804;52.350;6.684;2023-09-08T15:23:40;33.80;-6.00
19340;HTU21D;9804;52.350;6.684;2023-09-08T15:26:06;34.01;-6.00
19340;HTU21D;9804;52.350;6.684;2023-09-08T15:28:31;34.16;-6.00
19340;HTU21D;9804;52.350;6.684;2023-09-08T15:30:57;34.17;-6.00
19340;HTU21D;9804;52.350;6.684;2023-09-08T15:33:22;34.01;-6.00
19340;HTU21D;9804;52.350;6.684;2023-09-08T15:35:49;34.15;-6.00